JAL2838 KSFO-KDEN
Flight info
| Callsign | JAL2838 |
|---|---|
| Flight time | N/A |
| Altitude | 41000 |
| Route | TRUKN2 SYRAH Q128 JSICA LUDOH BUMMP SSKII4 |
| Aircraft | B772/H-SDE2E3FGHIJ5LORVWXY/LB1D1 |
Departure
| Time | 2026-05-05 17:17 |
|---|---|
| Airport | San Francisco International Airport (KSFO) |
Arrival
| Time | N/A |
|---|---|
| Airport | Denver International Airport (KDEN) |
| Time | Latitude | Longitude | Altitude | Speed | Heading |
|---|---|---|---|---|---|
| 2026-05-05 16:52 | 37.61210 | -122.39064 | 26 ft | 0 kts | 118° |
| 2026-05-05 17:01 | 37.61217 | -122.39080 | 26 ft | 2 kts | 119° |
| 2026-05-05 17:01 | 37.61225 | -122.39099 | 25 ft | 2 kts | 121° |
| 2026-05-05 17:01 | 37.61234 | -122.39116 | 26 ft | 2 kts | 124° |
| 2026-05-05 17:01 | 37.61244 | -122.39133 | 26 ft | 2 kts | 133° |
| 2026-05-05 17:02 | 37.61256 | -122.39146 | 25 ft | 2 kts | 158° |
| 2026-05-05 17:02 | 37.61272 | -122.39148 | 26 ft | 2 kts | 202° |
| 2026-05-05 17:02 | 37.61277 | -122.39145 | 26 ft | 0 kts | 205° |
| 2026-05-05 17:07 | 37.61273 | -122.39148 | 26 ft | 1 kts | 206° |
| 2026-05-05 17:08 | 37.61264 | -122.39153 | 26 ft | 2 kts | 207° |
| 2026-05-05 17:08 | 37.61252 | -122.39162 | 26 ft | 2 kts | 209° |
| 2026-05-05 17:08 | 37.61236 | -122.39174 | 26 ft | 3 kts | 209° |
| 2026-05-05 17:08 | 37.61212 | -122.39189 | 26 ft | 5 kts | 204° |
| 2026-05-05 17:09 | 37.61173 | -122.39199 | 26 ft | 7 kts | 180° |
| 2026-05-05 17:09 | 37.61127 | -122.39176 | 26 ft | 8 kts | 142° |
| 2026-05-05 17:09 | 37.61086 | -122.39119 | 26 ft | 10 kts | 131° |
| 2026-05-05 17:09 | 37.61039 | -122.39049 | 26 ft | 11 kts | 128° |
| 2026-05-05 17:10 | 37.60992 | -122.38964 | 26 ft | 12 kts | 120° |
| 2026-05-05 17:10 | 37.60938 | -122.38878 | 26 ft | 13 kts | 133° |
| 2026-05-05 17:10 | 37.60888 | -122.38774 | 26 ft | 15 kts | 116° |
| 2026-05-05 17:10 | 37.60841 | -122.38655 | 26 ft | 16 kts | 121° |
| 2026-05-05 17:11 | 37.60828 | -122.38525 | 26 ft | 16 kts | 50° |
| 2026-05-05 17:11 | 37.60934 | -122.38467 | 26 ft | 17 kts | 27° |
| 2026-05-05 17:11 | 37.61040 | -122.38385 | 26 ft | 18 kts | 33° |
| 2026-05-05 17:11 | 37.61078 | -122.38254 | 26 ft | 19 kts | 114° |
| 2026-05-05 17:12 | 37.61034 | -122.38094 | 26 ft | 20 kts | 91° |
| 2026-05-05 17:12 | 37.61091 | -122.37937 | 26 ft | 20 kts | 52° |
| 2026-05-05 17:12 | 37.61179 | -122.37799 | 26 ft | 20 kts | 51° |
| 2026-05-05 17:12 | 37.61228 | -122.37639 | 26 ft | 20 kts | 88° |
| 2026-05-05 17:13 | 37.61284 | -122.37483 | 26 ft | 21 kts | 37° |
| 2026-05-05 17:13 | 37.61414 | -122.37395 | 25 ft | 22 kts | 27° |
| 2026-05-05 17:13 | 37.61538 | -122.37284 | 25 ft | 22 kts | 54° |
| 2026-05-05 17:13 | 37.61546 | -122.37099 | 25 ft | 22 kts | 114° |
| 2026-05-05 17:14 | 37.61469 | -122.36934 | 26 ft | 22 kts | 127° |
| 2026-05-05 17:14 | 37.61370 | -122.36785 | 26 ft | 22 kts | 127° |
| 2026-05-05 17:14 | 37.61296 | -122.36617 | 26 ft | 22 kts | 117° |
| 2026-05-05 17:14 | 37.61224 | -122.36445 | 26 ft | 22 kts | 118° |
| 2026-05-05 17:15 | 37.61151 | -122.36274 | 26 ft | 22 kts | 117° |
| 2026-05-05 17:15 | 37.61082 | -122.36104 | 26 ft | 22 kts | 117° |
| 2026-05-05 17:15 | 37.61063 | -122.35947 | 26 ft | 18 kts | 62° |
| 2026-05-05 17:15 | 37.61173 | -122.35895 | 26 ft | 18 kts | 340° |
| 2026-05-05 17:16 | 37.61220 | -122.35959 | 26 ft | 0 kts | 299° |
| 2026-05-05 17:16 | 37.61220 | -122.35960 | 26 ft | 0 kts | 299° |
| 2026-05-05 17:16 | 37.61260 | -122.36051 | 26 ft | 35 kts | 299° |
| 2026-05-05 17:16 | 37.61516 | -122.36658 | 26 ft | 121 kts | 298° |
| 2026-05-05 17:17 | 37.62022 | -122.37829 | 224 ft | 176 kts | 299° |
| 2026-05-05 17:17 | 37.62696 | -122.39242 | 1015 ft | 201 kts | 302° |
| 2026-05-05 17:17 | 37.63543 | -122.40784 | 1773 ft | 220 kts | 307° |
| 2026-05-05 17:17 | 37.64750 | -122.41942 | 2671 ft | 227 kts | 340° |
| 2026-05-05 17:18 | 37.66400 | -122.41957 | 3214 ft | 254 kts | 19° |
| 2026-05-05 17:18 | 37.67791 | -122.40596 | 4083 ft | 261 kts | 56° |
| 2026-05-05 17:18 | 37.68348 | -122.38438 | 4997 ft | 260 kts | 83° |
| 2026-05-05 17:18 | 37.68506 | -122.36128 | 5789 ft | 267 kts | 85° |
| 2026-05-05 17:19 | 37.68742 | -122.33786 | 6678 ft | 270 kts | 81° |
| 2026-05-05 17:19 | 37.69131 | -122.31464 | 7543 ft | 271 kts | 76° |
| 2026-05-05 17:19 | 37.69653 | -122.29163 | 8382 ft | 273 kts | 72° |
| 2026-05-05 17:19 | 37.70246 | -122.26896 | 9145 ft | 277 kts | 70° |
| 2026-05-05 17:20 | 37.70883 | -122.24583 | 9930 ft | 279 kts | 70° |
| 2026-05-05 17:20 | 37.71536 | -122.22246 | 10457 ft | 290 kts | 69° |
| 2026-05-05 17:20 | 37.72419 | -122.19860 | 10618 ft | 311 kts | 58° |
| 2026-05-05 17:20 | 37.73642 | -122.17485 | 10969 ft | 330 kts | 55° |
| 2026-05-05 17:21 | 37.74965 | -122.15067 | 11698 ft | 338 kts | 54° |
| 2026-05-05 17:21 | 37.76307 | -122.12590 | 12688 ft | 343 kts | 55° |
| 2026-05-05 17:21 | 37.77646 | -122.10072 | 13752 ft | 348 kts | 55° |
| 2026-05-05 17:22 | 37.80335 | -122.04898 | 15642 ft | 355 kts | 56° |
| 2026-05-05 17:22 | 37.81676 | -122.02301 | 16594 ft | 358 kts | 56° |
| 2026-05-05 17:22 | 37.82867 | -121.99532 | 17435 ft | 362 kts | 69° |
| 2026-05-05 17:22 | 37.83503 | -121.96432 | 18081 ft | 368 kts | 76° |
| 2026-05-05 17:23 | 37.84063 | -121.93241 | 18819 ft | 372 kts | 76° |
| 2026-05-05 17:23 | 37.84623 | -121.90042 | 19712 ft | 372 kts | 76° |
| 2026-05-05 17:23 | 37.85190 | -121.86842 | 20493 ft | 374 kts | 75° |
| 2026-05-05 17:23 | 37.85773 | -121.83606 | 21210 ft | 378 kts | 75° |
| 2026-05-05 17:24 | 37.86367 | -121.80347 | 21932 ft | 382 kts | 75° |
| 2026-05-05 17:24 | 37.86969 | -121.77061 | 22677 ft | 384 kts | 75° |
| 2026-05-05 17:24 | 37.87578 | -121.73749 | 23415 ft | 387 kts | 75° |
| 2026-05-05 17:24 | 37.88191 | -121.70424 | 24042 ft | 390 kts | 75° |
| 2026-05-05 17:25 | 37.88811 | -121.67053 | 24660 ft | 393 kts | 75° |
| 2026-05-05 17:25 | 37.89223 | -121.64814 | 25057 ft | 395 kts | 75° |
| 2026-05-05 17:25 | 37.90058 | -121.60267 | 25866 ft | 398 kts | 75° |
| 2026-05-05 17:25 | 37.90686 | -121.56838 | 26472 ft | 401 kts | 75° |
| 2026-05-05 17:26 | 37.91309 | -121.53430 | 27042 ft | 404 kts | 75° |
| 2026-05-05 17:26 | 37.91953 | -121.49904 | 27621 ft | 407 kts | 75° |
| 2026-05-05 17:26 | 37.92585 | -121.46437 | 28197 ft | 410 kts | 75° |
| 2026-05-05 17:26 | 37.93226 | -121.42910 | 28769 ft | 412 kts | 75° |
| 2026-05-05 17:27 | 37.93872 | -121.39352 | 29317 ft | 416 kts | 75° |
| 2026-05-05 17:27 | 37.94523 | -121.35760 | 29807 ft | 420 kts | 75° |
| 2026-05-05 17:27 | 37.95177 | -121.32143 | 30277 ft | 423 kts | 75° |
| 2026-05-05 17:27 | 37.95837 | -121.28485 | 30650 ft | 428 kts | 75° |
| 2026-05-05 17:28 | 37.96502 | -121.24795 | 30972 ft | 433 kts | 75° |
| 2026-05-05 17:28 | 37.97176 | -121.21047 | 31269 ft | 438 kts | 75° |
| 2026-05-05 17:28 | 37.97855 | -121.17262 | 31618 ft | 441 kts | 75° |
| 2026-05-05 17:28 | 37.98536 | -121.13464 | 31940 ft | 445 kts | 76° |
| 2026-05-05 17:29 | 37.99223 | -121.09611 | 32227 ft | 449 kts | 76° |
| 2026-05-05 17:29 | 37.99869 | -121.05723 | 32522 ft | 453 kts | 77° |
| 2026-05-05 17:29 | 38.00481 | -121.01792 | 32820 ft | 456 kts | 77° |
| 2026-05-05 17:29 | 38.01083 | -120.97829 | 33106 ft | 459 kts | 78° |
| 2026-05-05 17:30 | 38.01683 | -120.93850 | 33411 ft | 460 kts | 78° |
| 2026-05-05 17:30 | 38.02287 | -120.89858 | 33783 ft | 461 kts | 78° |
| 2026-05-05 17:30 | 38.02895 | -120.85863 | 34200 ft | 461 kts | 78° |
| 2026-05-05 17:30 | 38.03504 | -120.81868 | 34522 ft | 462 kts | 78° |
| 2026-05-05 17:31 | 38.04109 | -120.77912 | 34805 ft | 463 kts | 78° |
| 2026-05-05 17:31 | 38.04725 | -120.73887 | 35108 ft | 464 kts | 78° |
| 2026-05-05 17:31 | 38.05338 | -120.69870 | 35456 ft | 464 kts | 78° |
| 2026-05-05 17:31 | 38.05953 | -120.65839 | 35776 ft | 465 kts | 78° |
| 2026-05-05 17:32 | 38.06566 | -120.61802 | 36082 ft | 466 kts | 78° |
| 2026-05-05 17:32 | 38.07181 | -120.57749 | 36396 ft | 467 kts | 78° |
| 2026-05-05 17:32 | 38.07793 | -120.53702 | 36756 ft | 466 kts | 78° |
| 2026-05-05 17:32 | 38.08405 | -120.49646 | 37066 ft | 468 kts | 78° |
| 2026-05-05 17:33 | 38.09016 | -120.45588 | 37345 ft | 469 kts | 78° |
| 2026-05-05 17:33 | 38.09619 | -120.41570 | 37644 ft | 469 kts | 78° |
| 2026-05-05 17:33 | 38.10229 | -120.37498 | 38002 ft | 469 kts | 78° |
| 2026-05-05 17:33 | 38.10837 | -120.33429 | 38291 ft | 470 kts | 78° |
| 2026-05-05 17:34 | 38.11447 | -120.29331 | 38528 ft | 471 kts | 78° |
| 2026-05-05 17:34 | 38.12055 | -120.25237 | 38761 ft | 472 kts | 78° |
| 2026-05-05 17:34 | 38.12662 | -120.21139 | 39004 ft | 472 kts | 78° |
| 2026-05-05 17:34 | 38.13269 | -120.17034 | 39194 ft | 474 kts | 79° |
| 2026-05-05 17:35 | 38.13878 | -120.12905 | 39401 ft | 475 kts | 79° |
| 2026-05-05 17:35 | 38.14280 | -120.10179 | 39548 ft | 475 kts | 79° |
| 2026-05-05 17:35 | 38.15089 | -120.04663 | 39858 ft | 474 kts | 79° |
| 2026-05-05 17:35 | 38.15490 | -120.01927 | 40017 ft | 474 kts | 79° |
| 2026-05-05 17:36 | 38.16288 | -119.96462 | 40266 ft | 476 kts | 79° |
| 2026-05-05 17:36 | 38.16891 | -119.92326 | 40441 ft | 476 kts | 79° |
| 2026-05-05 17:36 | 38.17492 | -119.88185 | 40647 ft | 477 kts | 79° |
| 2026-05-05 17:36 | 38.17898 | -119.85384 | 40767 ft | 478 kts | 79° |
| 2026-05-05 17:37 | 38.18493 | -119.81273 | 40872 ft | 480 kts | 79° |
| 2026-05-05 17:37 | 38.19703 | -119.72875 | 40967 ft | 485 kts | 79° |
| 2026-05-05 17:38 | 38.20916 | -119.64405 | 40969 ft | 486 kts | 79° |
| 2026-05-05 17:38 | 38.22113 | -119.56002 | 40963 ft | 478 kts | 79° |
| 2026-05-05 17:39 | 38.23291 | -119.47696 | 40972 ft | 477 kts | 79° |
| 2026-05-05 17:39 | 38.24461 | -119.39394 | 40969 ft | 476 kts | 79° |
| 2026-05-05 17:40 | 38.25625 | -119.31100 | 40968 ft | 476 kts | 79° |
| 2026-05-05 17:40 | 38.26784 | -119.22797 | 40971 ft | 476 kts | 79° |
| 2026-05-05 17:41 | 38.27931 | -119.14536 | 40968 ft | 477 kts | 79° |
| 2026-05-05 17:41 | 38.29080 | -119.06209 | 40975 ft | 478 kts | 79° |
| 2026-05-05 17:42 | 38.30224 | -118.97873 | 40952 ft | 479 kts | 79° |
| 2026-05-05 17:42 | 38.31364 | -118.89520 | 40972 ft | 479 kts | 79° |
| 2026-05-05 17:43 | 38.32500 | -118.81154 | 40971 ft | 480 kts | 79° |
| 2026-05-05 17:43 | 38.33632 | -118.72767 | 40984 ft | 480 kts | 79° |
| 2026-05-05 17:44 | 38.34758 | -118.64383 | 40989 ft | 479 kts | 80° |
| 2026-05-05 17:44 | 38.35871 | -118.56051 | 40990 ft | 479 kts | 79° |
| 2026-05-05 17:45 | 38.36982 | -118.47678 | 40973 ft | 479 kts | 80° |
| 2026-05-05 17:45 | 38.38085 | -118.39321 | 40973 ft | 478 kts | 79° |
| 2026-05-05 17:46 | 38.39184 | -118.30955 | 40943 ft | 478 kts | 80° |
| 2026-05-05 17:46 | 38.40275 | -118.22595 | 40931 ft | 477 kts | 80° |
| 2026-05-05 17:47 | 38.41356 | -118.14263 | 40924 ft | 476 kts | 80° |
| 2026-05-05 17:47 | 38.42424 | -118.05986 | 40972 ft | 474 kts | 79° |
| 2026-05-05 17:47 | 38.42949 | -118.01889 | 40926 ft | 463 kts | 79° |
| 2026-05-05 17:48 | 38.43463 | -117.97868 | 40925 ft | 457 kts | 79° |
| 2026-05-05 17:48 | 38.44486 | -117.89854 | 40920 ft | 458 kts | 79° |
| 2026-05-05 17:49 | 38.45507 | -117.81812 | 40914 ft | 459 kts | 79° |
| 2026-05-05 17:49 | 38.46525 | -117.73747 | 40917 ft | 460 kts | 79° |
| 2026-05-05 17:50 | 38.47539 | -117.65658 | 40914 ft | 462 kts | 79° |
| 2026-05-05 17:50 | 38.48552 | -117.57538 | 40915 ft | 464 kts | 79° |
| 2026-05-05 17:51 | 38.49558 | -117.49425 | 40907 ft | 465 kts | 79° |
| 2026-05-05 17:51 | 38.50563 | -117.41267 | 40904 ft | 465 kts | 79° |
| 2026-05-05 17:52 | 38.51566 | -117.33090 | 40894 ft | 466 kts | 79° |
| 2026-05-05 17:52 | 38.52093 | -117.24828 | 40894 ft | 469 kts | 89° |
| 2026-05-05 17:53 | 38.51883 | -117.16551 | 40892 ft | 469 kts | 90° |
| 2026-05-05 17:53 | 38.51629 | -117.08206 | 40885 ft | 470 kts | 90° |
| 2026-05-05 17:54 | 38.51394 | -116.99844 | 40884 ft | 471 kts | 90° |
| 2026-05-05 17:54 | 38.51172 | -116.91483 | 40883 ft | 471 kts | 90° |
| 2026-05-05 17:55 | 38.50951 | -116.83124 | 40883 ft | 472 kts | 90° |
| 2026-05-05 17:55 | 38.50723 | -116.74749 | 40882 ft | 472 kts | 90° |
| 2026-05-05 17:56 | 38.50490 | -116.66404 | 40887 ft | 473 kts | 91° |
| 2026-05-05 17:56 | 38.50248 | -116.58006 | 40873 ft | 474 kts | 91° |
| 2026-05-05 17:57 | 38.49999 | -116.49579 | 40881 ft | 475 kts | 91° |
| 2026-05-05 17:57 | 38.49745 | -116.41147 | 40875 ft | 476 kts | 91° |
| 2026-05-05 17:58 | 38.49483 | -116.32697 | 40876 ft | 476 kts | 91° |
| 2026-05-05 17:58 | 38.49215 | -116.24240 | 40868 ft | 477 kts | 91° |
| 2026-05-05 17:59 | 38.48942 | -116.15784 | 40874 ft | 477 kts | 91° |
| 2026-05-05 17:59 | 38.48663 | -116.07362 | 40870 ft | 477 kts | 91° |
| 2026-05-05 18:00 | 38.48376 | -115.98879 | 40866 ft | 478 kts | 91° |
| 2026-05-05 18:00 | 38.48083 | -115.90406 | 40866 ft | 478 kts | 91° |
| 2026-05-05 18:01 | 38.47784 | -115.81916 | 40861 ft | 479 kts | 92° |
| 2026-05-05 18:01 | 38.47478 | -115.73431 | 40857 ft | 479 kts | 92° |
| 2026-05-05 18:02 | 38.47166 | -115.64925 | 40853 ft | 479 kts | 92° |
| 2026-05-05 18:02 | 38.46850 | -115.56482 | 40857 ft | 480 kts | 92° |
| 2026-05-05 18:03 | 38.46525 | -115.47969 | 40851 ft | 480 kts | 92° |
| 2026-05-05 18:03 | 38.46194 | -115.39436 | 40853 ft | 481 kts | 92° |
| 2026-05-05 18:04 | 38.45856 | -115.30906 | 40850 ft | 482 kts | 92° |
| 2026-05-05 18:04 | 38.45510 | -115.22366 | 40846 ft | 482 kts | 92° |
| 2026-05-05 18:05 | 38.45162 | -115.13874 | 40847 ft | 482 kts | 92° |
| 2026-05-05 18:05 | 38.44804 | -115.05317 | 40848 ft | 483 kts | 92° |
| 2026-05-05 18:06 | 38.44439 | -114.96756 | 40850 ft | 483 kts | 92° |
| 2026-05-05 18:06 | 38.44069 | -114.88181 | 40852 ft | 484 kts | 93° |
| 2026-05-05 18:07 | 38.43691 | -114.79606 | 40852 ft | 484 kts | 93° |
| 2026-05-05 18:07 | 38.43309 | -114.71074 | 40850 ft | 485 kts | 93° |
| 2026-05-05 18:08 | 38.42919 | -114.62490 | 40857 ft | 486 kts | 93° |
| 2026-05-05 18:08 | 38.42522 | -114.53890 | 40855 ft | 486 kts | 93° |
| 2026-05-05 18:09 | 38.42117 | -114.45274 | 40854 ft | 487 kts | 94° |
| 2026-05-05 18:09 | 38.41706 | -114.36643 | 40860 ft | 488 kts | 94° |
| 2026-05-05 18:10 | 38.41287 | -114.28001 | 40851 ft | 489 kts | 94° |
| 2026-05-05 18:10 | 38.40861 | -114.19336 | 40843 ft | 489 kts | 94° |
| 2026-05-05 18:11 | 38.40429 | -114.10669 | 40835 ft | 490 kts | 94° |
| 2026-05-05 18:11 | 38.39992 | -114.02052 | 40834 ft | 491 kts | 94° |
| 2026-05-05 18:12 | 38.39546 | -113.93351 | 40828 ft | 492 kts | 94° |
| 2026-05-05 18:12 | 38.39092 | -113.84645 | 40819 ft | 493 kts | 94° |
| 2026-05-05 18:13 | 38.38631 | -113.75923 | 40820 ft | 493 kts | 94° |
| 2026-05-05 18:13 | 38.38163 | -113.67194 | 40815 ft | 493 kts | 95° |
| 2026-05-05 18:14 | 38.37691 | -113.58517 | 40813 ft | 493 kts | 95° |
| 2026-05-05 18:14 | 38.37210 | -113.49794 | 40803 ft | 493 kts | 95° |
| 2026-05-05 18:15 | 38.36722 | -113.41057 | 40818 ft | 494 kts | 95° |
| 2026-05-05 18:15 | 38.36228 | -113.32330 | 40864 ft | 494 kts | 95° |
| 2026-05-05 18:16 | 38.35727 | -113.23601 | 40884 ft | 494 kts | 95° |
| 2026-05-05 18:16 | 38.35219 | -113.14863 | 40926 ft | 495 kts | 95° |
| 2026-05-05 18:17 | 38.34704 | -113.06118 | 40941 ft | 495 kts | 95° |
| 2026-05-05 18:17 | 38.34182 | -112.97364 | 40941 ft | 496 kts | 95° |
| 2026-05-05 18:18 | 38.33653 | -112.88599 | 40925 ft | 497 kts | 96° |
| 2026-05-05 18:18 | 38.33115 | -112.79805 | 40896 ft | 497 kts | 96° |
| 2026-05-05 18:19 | 38.32572 | -112.71019 | 40871 ft | 498 kts | 96° |
| 2026-05-05 18:19 | 38.32025 | -112.62281 | 40847 ft | 498 kts | 96° |
| 2026-05-05 18:20 | 38.31466 | -112.53473 | 40823 ft | 499 kts | 96° |
| 2026-05-05 18:20 | 38.30900 | -112.44651 | 40818 ft | 500 kts | 96° |
| 2026-05-05 18:21 | 38.30327 | -112.35809 | 40817 ft | 501 kts | 96° |
| 2026-05-05 18:21 | 38.29750 | -112.27023 | 40818 ft | 501 kts | 96° |
| 2026-05-05 18:22 | 38.29162 | -112.18170 | 40813 ft | 501 kts | 97° |
| 2026-05-05 18:22 | 38.28566 | -112.09318 | 40808 ft | 501 kts | 97° |
| 2026-05-05 18:23 | 38.27966 | -112.00459 | 40804 ft | 502 kts | 97° |
| 2026-05-05 18:23 | 38.27460 | -111.93092 | 40810 ft | 503 kts | 97° |
| 2026-05-05 18:24 | 38.26842 | -111.84198 | 40797 ft | 505 kts | 97° |
| 2026-05-05 18:24 | 38.26217 | -111.75297 | 40795 ft | 506 kts | 97° |
| 2026-05-05 18:25 | 38.25584 | -111.66357 | 40789 ft | 507 kts | 97° |
| 2026-05-05 18:25 | 38.24948 | -111.57479 | 40788 ft | 508 kts | 97° |
| 2026-05-05 18:26 | 38.24299 | -111.48519 | 40770 ft | 509 kts | 98° |
| 2026-05-05 18:26 | 38.23643 | -111.39548 | 40764 ft | 509 kts | 98° |
| 2026-05-05 18:27 | 38.22978 | -111.30566 | 40755 ft | 510 kts | 98° |
| 2026-05-05 18:27 | 38.22306 | -111.21570 | 40739 ft | 511 kts | 98° |
| 2026-05-05 18:28 | 38.21283 | -111.08059 | 40731 ft | 512 kts | 98° |
| 2026-05-05 18:28 | 38.20597 | -110.99112 | 40762 ft | 512 kts | 98° |
| 2026-05-05 18:29 | 38.19898 | -110.90091 | 40787 ft | 513 kts | 99° |
| 2026-05-05 18:29 | 38.19192 | -110.81068 | 40807 ft | 514 kts | 99° |
| 2026-05-05 18:30 | 38.18476 | -110.72008 | 40803 ft | 515 kts | 99° |
| 2026-05-05 18:30 | 38.17753 | -110.62954 | 40795 ft | 515 kts | 99° |
| 2026-05-05 18:31 | 38.17022 | -110.53875 | 40784 ft | 516 kts | 99° |
| 2026-05-05 18:31 | 38.16283 | -110.44797 | 40747 ft | 517 kts | 99° |
| 2026-05-05 18:32 | 38.15537 | -110.35714 | 40726 ft | 517 kts | 99° |
| 2026-05-05 18:32 | 38.14782 | -110.26608 | 40719 ft | 518 kts | 99° |
| 2026-05-05 18:33 | 38.14026 | -110.17565 | 40740 ft | 519 kts | 100° |
| 2026-05-05 18:33 | 38.13450 | -110.08428 | 40746 ft | 520 kts | 96° |
| 2026-05-05 18:34 | 38.13237 | -109.99227 | 40750 ft | 522 kts | 95° |
| 2026-05-05 18:34 | 38.13049 | -109.89998 | 40743 ft | 523 kts | 95° |
| 2026-05-05 18:35 | 38.12810 | -109.80752 | 40748 ft | 524 kts | 96° |
| 2026-05-05 18:35 | 38.12539 | -109.71492 | 40748 ft | 525 kts | 96° |
| 2026-05-05 18:36 | 38.12260 | -109.62211 | 40740 ft | 525 kts | 96° |
| 2026-05-05 18:36 | 38.11981 | -109.52992 | 40753 ft | 526 kts | 96° |
| 2026-05-05 18:37 | 38.11684 | -109.43695 | 40770 ft | 527 kts | 96° |
| 2026-05-05 18:37 | 38.11384 | -109.34383 | 40748 ft | 528 kts | 96° |
| 2026-05-05 18:38 | 38.11079 | -109.25067 | 40767 ft | 528 kts | 97° |
| 2026-05-05 18:38 | 38.10764 | -109.15736 | 40751 ft | 529 kts | 97° |
| 2026-05-05 18:39 | 38.10443 | -109.06411 | 40752 ft | 529 kts | 97° |
| 2026-05-05 18:39 | 38.10149 | -108.97085 | 40744 ft | 530 kts | 92° |
| 2026-05-05 18:40 | 38.10605 | -108.92421 | 40733 ft | 537 kts | 77° |
| 2026-05-05 18:40 | 38.11964 | -108.88070 | 40744 ft | 537 kts | 64° |
| 2026-05-05 18:40 | 38.15450 | -108.79650 | 40743 ft | 540 kts | 63° |
| 2026-05-05 18:41 | 38.18931 | -108.71172 | 40741 ft | 542 kts | 64° |
| 2026-05-05 18:41 | 38.22324 | -108.62583 | 40746 ft | 543 kts | 64° |
| 2026-05-05 18:42 | 38.25673 | -108.53960 | 40744 ft | 544 kts | 64° |
| 2026-05-05 18:42 | 38.29009 | -108.45357 | 40746 ft | 545 kts | 64° |
| 2026-05-05 18:43 | 38.32368 | -108.36697 | 40744 ft | 546 kts | 64° |
| 2026-05-05 18:43 | 38.35727 | -108.28021 | 40758 ft | 545 kts | 64° |
| 2026-05-05 18:44 | 38.39070 | -108.19359 | 40787 ft | 544 kts | 65° |
| 2026-05-05 18:44 | 38.42397 | -108.10708 | 40826 ft | 543 kts | 65° |
| 2026-05-05 18:45 | 38.45714 | -108.02062 | 40866 ft | 542 kts | 64° |
| 2026-05-05 18:45 | 38.48999 | -107.93424 | 40889 ft | 541 kts | 65° |
| 2026-05-05 18:46 | 38.52240 | -107.84822 | 40891 ft | 540 kts | 65° |
| 2026-05-05 18:46 | 38.55499 | -107.76154 | 40878 ft | 541 kts | 65° |
| 2026-05-05 18:47 | 38.58753 | -107.67488 | 40839 ft | 541 kts | 65° |
| 2026-05-05 18:47 | 38.62007 | -107.58794 | 40769 ft | 542 kts | 65° |
| 2026-05-05 18:48 | 38.65254 | -107.50098 | 40760 ft | 542 kts | 65° |
| 2026-05-05 18:48 | 38.68531 | -107.41391 | 40704 ft | 544 kts | 65° |
| 2026-05-05 18:49 | 38.71839 | -107.32681 | 40756 ft | 544 kts | 64° |
| 2026-05-05 18:49 | 38.75123 | -107.24001 | 40793 ft | 545 kts | 65° |
| 2026-05-05 18:50 | 38.78423 | -107.15228 | 40783 ft | 547 kts | 65° |
| 2026-05-05 18:50 | 38.81722 | -107.06425 | 40786 ft | 548 kts | 65° |
| 2026-05-05 18:51 | 38.83379 | -107.01995 | 40244 ft | 555 kts | 65° |
| 2026-05-05 18:51 | 38.85048 | -106.97527 | 39569 ft | 554 kts | 65° |
| 2026-05-05 18:51 | 38.86710 | -106.93072 | 38914 ft | 552 kts | 65° |
| 2026-05-05 18:51 | 38.88367 | -106.88623 | 38162 ft | 553 kts | 65° |
| 2026-05-05 18:52 | 38.90022 | -106.84172 | 37359 ft | 553 kts | 65° |
| 2026-05-05 18:52 | 38.91676 | -106.79717 | 36608 ft | 551 kts | 65° |
| 2026-05-05 18:52 | 38.93324 | -106.75273 | 35864 ft | 551 kts | 65° |
| 2026-05-05 18:52 | 38.94967 | -106.70835 | 35032 ft | 552 kts | 65° |
| 2026-05-05 18:53 | 38.96619 | -106.66366 | 34097 ft | 555 kts | 65° |
| 2026-05-05 18:53 | 38.98280 | -106.61868 | 33189 ft | 556 kts | 65° |
| 2026-05-05 18:53 | 38.99911 | -106.57445 | 32966 ft | 540 kts | 65° |
| 2026-05-05 18:53 | 39.01508 | -106.53098 | 32409 ft | 534 kts | 65° |
| 2026-05-05 18:54 | 39.03079 | -106.48807 | 31883 ft | 527 kts | 65° |
| 2026-05-05 18:54 | 39.04609 | -106.44616 | 31385 ft | 520 kts | 65° |
| 2026-05-05 18:54 | 39.06132 | -106.40441 | 30868 ft | 512 kts | 65° |
| 2026-05-05 18:54 | 39.07632 | -106.36324 | 30376 ft | 504 kts | 65° |
| 2026-05-05 18:55 | 39.09109 | -106.32264 | 29817 ft | 497 kts | 65° |
| 2026-05-05 18:55 | 39.10561 | -106.28268 | 29194 ft | 489 kts | 65° |
| 2026-05-05 18:55 | 39.12000 | -106.24306 | 28605 ft | 481 kts | 64° |
| 2026-05-05 18:55 | 39.13406 | -106.20430 | 28030 ft | 474 kts | 64° |
| 2026-05-05 18:56 | 39.14793 | -106.16599 | 27431 ft | 467 kts | 64° |
| 2026-05-05 18:56 | 39.16152 | -106.12839 | 26851 ft | 460 kts | 64° |
| 2026-05-05 18:56 | 39.17491 | -106.09115 | 26286 ft | 454 kts | 64° |
| 2026-05-05 18:56 | 39.18793 | -106.05488 | 25727 ft | 448 kts | 64° |
| 2026-05-05 18:57 | 39.20096 | -106.01858 | 25175 ft | 444 kts | 64° |
| 2026-05-05 18:57 | 39.21387 | -105.98255 | 24628 ft | 439 kts | 64° |
| 2026-05-05 18:57 | 39.22662 | -105.94696 | 24106 ft | 435 kts | 64° |
| 2026-05-05 18:57 | 39.23923 | -105.91172 | 23578 ft | 431 kts | 64° |
| 2026-05-05 18:58 | 39.25182 | -105.87670 | 23000 ft | 428 kts | 64° |
| 2026-05-05 18:58 | 39.26432 | -105.84207 | 22436 ft | 423 kts | 64° |
| 2026-05-05 18:58 | 39.27667 | -105.80782 | 21952 ft | 419 kts | 64° |
| 2026-05-05 18:58 | 39.28888 | -105.77388 | 21493 ft | 414 kts | 64° |
| 2026-05-05 18:59 | 39.30092 | -105.74039 | 21008 ft | 409 kts | 64° |
| 2026-05-05 18:59 | 39.31283 | -105.70721 | 20616 ft | 404 kts | 64° |
| 2026-05-05 18:59 | 39.32444 | -105.67479 | 20481 ft | 392 kts | 64° |
| 2026-05-05 18:59 | 39.33593 | -105.64304 | 20073 ft | 389 kts | 64° |
| 2026-05-05 19:00 | 39.34747 | -105.61150 | 19666 ft | 386 kts | 63° |
| 2026-05-05 19:00 | 39.35892 | -105.58025 | 19281 ft | 384 kts | 63° |
| 2026-05-05 19:00 | 39.37031 | -105.54911 | 18883 ft | 382 kts | 64° |
| 2026-05-05 19:00 | 39.38158 | -105.51819 | 18486 ft | 379 kts | 64° |
| 2026-05-05 19:01 | 39.39267 | -105.48773 | 18088 ft | 377 kts | 64° |
| 2026-05-05 19:01 | 39.40371 | -105.45732 | 17887 ft | 369 kts | 64° |
| 2026-05-05 19:01 | 39.41396 | -105.42763 | 17856 ft | 359 kts | 70° |
| 2026-05-05 19:01 | 39.41829 | -105.39576 | 17882 ft | 360 kts | 89° |
| 2026-05-05 19:02 | 39.41840 | -105.36339 | 17903 ft | 361 kts | 91° |
| 2026-05-05 19:02 | 39.41818 | -105.33100 | 17905 ft | 360 kts | 91° |
| 2026-05-05 19:02 | 39.41799 | -105.29863 | 17935 ft | 359 kts | 91° |
| 2026-05-05 19:02 | 39.41792 | -105.26632 | 17924 ft | 359 kts | 91° |
| 2026-05-05 19:03 | 39.41794 | -105.23406 | 17939 ft | 358 kts | 91° |
| 2026-05-05 19:03 | 39.41802 | -105.20190 | 17956 ft | 357 kts | 90° |
| 2026-05-05 19:03 | 39.41814 | -105.16972 | 17977 ft | 359 kts | 90° |
| 2026-05-05 19:03 | 39.41828 | -105.13775 | 17970 ft | 360 kts | 90° |
| 2026-05-05 19:04 | 39.41841 | -105.10532 | 17982 ft | 360 kts | 90° |
| 2026-05-05 19:04 | 39.41854 | -105.07297 | 17995 ft | 361 kts | 90° |
| 2026-05-05 19:04 | 39.41866 | -105.04052 | 17979 ft | 349 kts | 90° |
| 2026-05-05 19:04 | 39.41877 | -105.01012 | 17967 ft | 335 kts | 90° |
| 2026-05-05 19:05 | 39.41886 | -104.98062 | 17971 ft | 321 kts | 90° |
| 2026-05-05 19:05 | 39.41894 | -104.95240 | 17978 ft | 309 kts | 90° |
| 2026-05-05 19:05 | 39.41996 | -104.92469 | 17987 ft | 307 kts | 84° |
| 2026-05-05 19:05 | 39.42249 | -104.89728 | 18000 ft | 307 kts | 82° |
| 2026-05-05 19:06 | 39.42518 | -104.86985 | 18016 ft | 307 kts | 83° |
| 2026-05-05 19:06 | 39.42782 | -104.84237 | 17999 ft | 308 kts | 83° |
| 2026-05-05 19:06 | 39.43034 | -104.81485 | 17998 ft | 308 kts | 83° |
| 2026-05-05 19:06 | 39.43478 | -104.78842 | 17989 ft | 303 kts | 63° |
| 2026-05-05 19:07 | 39.44690 | -104.76684 | 18004 ft | 294 kts | 36° |
| 2026-05-05 19:07 | 39.45810 | -104.75666 | 18014 ft | 289 kts | 22° |
| 2026-05-05 19:07 | 39.48304 | -104.74594 | 18010 ft | 284 kts | 7° |
| 2026-05-05 19:07 | 39.50237 | -104.74007 | 18015 ft | 286 kts | 7° |
| 2026-05-05 19:08 | 39.52195 | -104.73430 | 18016 ft | 289 kts | 7° |
| 2026-05-05 19:08 | 39.54161 | -104.72841 | 18017 ft | 290 kts | 7° |
| 2026-05-05 19:08 | 39.56135 | -104.72240 | 18014 ft | 291 kts | 7° |
| 2026-05-05 19:08 | 39.58102 | -104.71630 | 18003 ft | 290 kts | 7° |
| 2026-05-05 19:09 | 39.60037 | -104.71025 | 17999 ft | 289 kts | 8° |
| 2026-05-05 19:09 | 39.61985 | -104.70413 | 17993 ft | 287 kts | 8° |
| 2026-05-05 19:09 | 39.63926 | -104.69801 | 17995 ft | 286 kts | 8° |
| 2026-05-05 19:09 | 39.65851 | -104.69194 | 17999 ft | 284 kts | 8° |
| 2026-05-05 19:10 | 39.67772 | -104.68772 | 17993 ft | 275 kts | 356° |
| 2026-05-05 19:10 | 39.69669 | -104.68695 | 17936 ft | 272 kts | 358° |
| 2026-05-05 19:10 | 39.71536 | -104.68473 | 17878 ft | 265 kts | 0° |
| 2026-05-05 19:10 | 39.73330 | -104.68204 | 17795 ft | 254 kts | 0° |
| 2026-05-05 19:11 | 39.74482 | -104.68021 | 17726 ft | 248 kts | 0° |
| 2026-05-05 19:11 | 39.76164 | -104.67744 | 17571 ft | 240 kts | 0° |
| 2026-05-05 19:11 | 39.77804 | -104.67467 | 17346 ft | 236 kts | 0° |
| 2026-05-05 19:11 | 39.79427 | -104.67190 | 16992 ft | 236 kts | 0° |
| 2026-05-05 19:12 | 39.81100 | -104.66901 | 16354 ft | 250 kts | 0° |
| 2026-05-05 19:12 | 39.82883 | -104.66651 | 15714 ft | 264 kts | 360° |
| 2026-05-05 19:12 | 39.84728 | -104.66415 | 15285 ft | 269 kts | 359° |
| 2026-05-05 19:12 | 39.86629 | -104.66184 | 14750 ft | 278 kts | 359° |
| 2026-05-05 19:13 | 39.88576 | -104.65960 | 14347 ft | 283 kts | 359° |
| 2026-05-05 19:13 | 39.89879 | -104.65814 | 14076 ft | 286 kts | 359° |